createdAt,value
2023-03-16T00:00:19.602Z,1021.72
2023-03-16T00:01:19.610Z,1021.64
2023-03-16T00:02:19.741Z,1021.68
2023-03-16T00:03:19.664Z,1021.64
2023-03-16T00:04:19.554Z,1021.67
2023-03-16T00:05:19.526Z,1021.65
2023-03-16T00:06:19.515Z,1021.63
2023-03-16T00:07:19.532Z,1021.64
2023-03-16T00:08:19.513Z,1021.61
2023-03-16T00:09:19.498Z,1021.57
2023-03-16T00:10:19.453Z,1021.59
2023-03-16T00:11:19.478Z,1021.57
2023-03-16T00:12:19.423Z,1021.55
2023-03-16T00:13:19.428Z,1021.57
2023-03-16T00:14:19.421Z,1021.60
2023-03-16T00:15:19.383Z,1021.62
2023-03-16T00:16:19.384Z,1021.64
2023-03-16T00:17:19.596Z,1021.68
2023-03-16T00:18:19.353Z,1021.63
2023-03-16T00:19:19.365Z,1021.63
2023-03-16T00:20:19.394Z,1021.66
2023-03-16T00:21:19.298Z,1021.65
2023-03-16T00:22:19.289Z,1021.67
2023-03-16T00:23:19.286Z,1021.66
2023-03-16T00:24:19.324Z,1021.72
2023-03-16T00:25:19.276Z,1021.70
2023-03-16T00:26:19.245Z,1021.71
2023-03-16T00:27:19.243Z,1021.72
2023-03-16T00:28:19.261Z,1021.74
2023-03-16T00:29:19.271Z,1021.73
2023-03-16T00:30:19.201Z,1021.70
2023-03-16T00:31:19.236Z,1021.71
2023-03-16T00:32:19.168Z,1021.72
2023-03-16T00:33:19.157Z,1021.71
2023-03-16T00:34:19.165Z,1021.68
2023-03-16T00:35:19.151Z,1021.68
2023-03-16T00:36:19.118Z,1021.67
2023-03-16T00:37:19.154Z,1021.67
2023-03-16T00:38:19.103Z,1021.63
2023-03-16T00:39:19.186Z,1021.63
2023-03-16T00:40:19.060Z,1021.63
2023-03-16T00:41:19.057Z,1021.67
2023-03-16T00:42:19.035Z,1021.62
2023-03-16T00:43:19.025Z,1021.59
2023-03-16T00:44:19.048Z,1021.60
2023-03-16T00:45:19.064Z,1021.59
2023-03-16T00:46:19.045Z,1021.58
2023-03-16T00:47:19.017Z,1021.57
2023-03-16T00:48:18.967Z,1021.51
2023-03-16T00:49:18.941Z,1021.53
2023-03-16T00:50:18.998Z,1021.52
2023-03-16T00:51:18.935Z,1021.57
2023-03-16T00:52:18.951Z,1021.52
2023-03-16T00:53:18.887Z,1021.52
2023-03-16T00:54:18.926Z,1021.52
2023-03-16T00:55:18.877Z,1021.43
2023-03-16T00:56:18.888Z,1021.47
2023-03-16T00:57:18.955Z,1021.44
2023-03-16T00:58:18.853Z,1021.46
2023-03-16T00:59:18.880Z,1021.46
2023-03-16T01:00:18.819Z,1021.40
2023-03-16T01:01:19.036Z,1021.43
2023-03-16T01:02:18.803Z,1021.38
2023-03-16T01:03:18.862Z,1021.36
2023-03-16T01:04:18.782Z,1021.36
2023-03-16T01:05:18.738Z,1021.41
2023-03-16T01:06:18.726Z,1021.39
2023-03-16T01:07:18.710Z,1021.36
2023-03-16T01:08:18.731Z,1021.42
2023-03-16T01:09:18.800Z,1021.40
2023-03-16T01:10:18.681Z,1021.38
2023-03-16T01:11:18.672Z,1021.43
2023-03-16T01:12:18.743Z,1021.43
2023-03-16T01:13:18.649Z,1021.46
2023-03-16T01:14:18.652Z,1021.43
2023-03-16T01:15:18.626Z,1021.42
2023-03-16T01:16:18.700Z,1021.44
2023-03-16T01:17:18.608Z,1021.36
2023-03-16T01:18:18.599Z,1021.43
2023-03-16T01:19:18.764Z,1021.33
2023-03-16T01:20:18.554Z,1021.32
2023-03-16T01:21:18.546Z,1021.32
2023-03-16T01:22:18.611Z,1021.32
2023-03-16T01:23:18.536Z,1021.34
2023-03-16T01:24:18.538Z,1021.38
2023-03-16T01:25:18.508Z,1021.35
2023-03-16T01:26:18.479Z,1021.37
2023-03-16T01:27:18.481Z,1021.39
2023-03-16T01:28:18.612Z,1021.33
2023-03-16T01:29:18.531Z,1021.33
2023-03-16T01:30:18.459Z,1021.29
2023-03-16T01:31:18.532Z,1021.28
2023-03-16T01:32:18.608Z,1021.26
2023-03-16T01:33:18.400Z,1021.24
2023-03-16T01:34:18.794Z,1021.25
2023-03-16T01:35:18.383Z,1021.23
2023-03-16T01:36:18.361Z,1021.31
2023-03-16T01:37:18.327Z,1021.30
2023-03-16T01:38:18.319Z,1021.29
2023-03-16T01:39:18.309Z,1021.29
2023-03-16T01:40:18.327Z,1021.29
2023-03-16T01:41:18.288Z,1021.27
2023-03-16T01:42:18.298Z,1021.28
2023-03-16T01:43:18.258Z,1021.30
2023-03-16T01:44:18.251Z,1021.26
2023-03-16T01:45:18.239Z,1021.28
2023-03-16T01:46:18.450Z,1021.27
2023-03-16T01:47:18.223Z,1021.22
2023-03-16T01:48:18.198Z,1021.23
2023-03-16T01:49:18.195Z,1021.19
2023-03-16T01:50:18.172Z,1021.20
2023-03-16T01:51:18.154Z,1021.18
2023-03-16T01:52:18.162Z,1021.11
2023-03-16T01:53:18.129Z,1021.11
2023-03-16T01:54:18.119Z,1021.10
2023-03-16T01:55:18.117Z,1021.14
2023-03-16T01:56:18.093Z,1021.10
2023-03-16T01:57:18.098Z,1021.11
2023-03-16T01:58:18.074Z,1021.06
2023-03-16T01:59:18.100Z,1021.02
2023-03-16T02:00:18.051Z,1021.04
2023-03-16T02:01:18.070Z,1021.00
2023-03-16T02:02:18.025Z,1020.99
2023-03-16T02:03:18.015Z,1021.00
2023-03-16T02:04:18.052Z,1020.97
2023-03-16T02:05:17.985Z,1021.00
2023-03-16T02:06:17.967Z,1021.02
2023-03-16T02:07:17.978Z,1021.00
2023-03-16T02:08:17.941Z,1020.94
2023-03-16T02:09:17.945Z,1020.96
2023-03-16T02:10:17.930Z,1020.94
2023-03-16T02:11:17.920Z,1020.97
2023-03-16T02:12:17.982Z,1020.89
2023-03-16T02:13:17.906Z,1020.85
2023-03-16T02:14:17.880Z,1020.90
2023-03-16T02:15:17.885Z,1020.86
2023-03-16T02:16:17.950Z,1020.86
2023-03-16T02:17:17.830Z,1020.77
2023-03-16T02:18:17.825Z,1020.84
2023-03-16T02:19:17.815Z,1020.77
2023-03-16T02:20:17.826Z,1020.77
2023-03-16T02:21:17.775Z,1020.79
2023-03-16T02:22:17.770Z,1020.75
2023-03-16T02:23:17.774Z,1020.75
2023-03-16T02:24:17.740Z,1020.71
2023-03-16T02:25:17.736Z,1020.69
2023-03-16T02:26:17.704Z,1020.67
2023-03-16T02:27:17.706Z,1020.64
2023-03-16T02:28:17.730Z,1020.60
2023-03-16T02:29:17.674Z,1020.64
2023-03-16T02:30:17.662Z,1020.59
2023-03-16T02:31:17.687Z,1020.55
2023-03-16T02:32:17.652Z,1020.49
2023-03-16T02:33:17.651Z,1020.55
2023-03-16T02:34:17.609Z,1020.49
2023-03-16T02:35:17.635Z,1020.51
2023-03-16T02:36:17.601Z,1020.49
2023-03-16T02:37:17.585Z,1020.53
2023-03-16T02:38:17.583Z,1020.51
2023-03-16T02:39:17.543Z,1020.57
2023-03-16T02:40:17.551Z,1020.48
2023-03-16T02:41:17.525Z,1020.45
2023-03-16T02:42:17.499Z,1020.46
2023-03-16T02:43:17.509Z,1020.47
2023-03-16T02:44:17.485Z,1020.47
2023-03-16T02:45:17.489Z,1020.43
2023-03-16T02:46:17.495Z,1020.49
2023-03-16T02:47:17.442Z,1020.47
2023-03-16T02:48:17.424Z,1020.48
2023-03-16T02:49:17.430Z,1020.47
2023-03-16T02:50:17.429Z,1020.44
2023-03-16T02:51:17.396Z,1020.44
2023-03-16T02:52:17.369Z,1020.43
2023-03-16T02:53:17.402Z,1020.39
2023-03-16T02:54:17.352Z,1020.41
2023-03-16T02:55:17.343Z,1020.38
2023-03-16T02:56:17.319Z,1020.36
2023-03-16T02:57:17.324Z,1020.42
2023-03-16T02:58:17.325Z,1020.35
2023-03-16T02:59:17.287Z,1020.32
2023-03-16T03:00:17.293Z,1020.33
2023-03-16T03:01:17.270Z,1020.32
2023-03-16T03:02:17.254Z,1020.27
2023-03-16T03:03:17.344Z,1020.26
2023-03-16T03:04:17.245Z,1020.26
2023-03-16T03:05:17.233Z,1020.22
2023-03-16T03:06:17.195Z,1020.21
2023-03-16T03:07:17.203Z,1020.22
2023-03-16T03:08:17.188Z,1020.18
2023-03-16T03:09:17.168Z,1020.17
2023-03-16T03:10:17.181Z,1020.16
2023-03-16T03:11:17.135Z,1020.11
2023-03-16T03:12:17.125Z,1020.18
2023-03-16T03:13:17.136Z,1020.15
2023-03-16T03:14:17.094Z,1020.20
2023-03-16T03:15:17.104Z,1020.18
2023-03-16T03:16:17.193Z,1020.13
2023-03-16T03:17:17.095Z,1020.16
2023-03-16T03:18:17.045Z,1020.13
2023-03-16T03:19:17.057Z,1020.08
2023-03-16T03:20:17.063Z,1020.11
2023-03-16T03:21:17.013Z,1020.08
2023-03-16T03:22:16.993Z,1020.10
2023-03-16T03:23:16.989Z,1020.06
2023-03-16T03:24:16.966Z,1020.05
2023-03-16T03:25:16.954Z,1020.04
2023-03-16T03:26:16.989Z,1020.07
2023-03-16T03:27:16.934Z,1020.05
2023-03-16T03:28:16.908Z,1020.02
2023-03-16T03:29:16.946Z,1020.02
2023-03-16T03:30:16.900Z,1020.02
2023-03-16T03:31:16.903Z,1020.03
2023-03-16T03:32:16.881Z,1020.06
2023-03-16T03:33:16.856Z,1020.06
2023-03-16T03:34:16.853Z,1020.08
2023-03-16T03:35:16.844Z,1020.06
2023-03-16T03:36:16.828Z,1020.09
2023-03-16T03:37:16.814Z,1020.07
2023-03-16T03:38:16.801Z,1020.08
2023-03-16T03:39:16.830Z,1020.07
2023-03-16T03:40:16.757Z,1020.07
2023-03-16T03:41:16.800Z,1020.06
2023-03-16T03:42:16.735Z,1020.05
2023-03-16T03:43:16.733Z,1020.04
2023-03-16T03:44:16.732Z,1020.07
2023-03-16T03:45:16.722Z,1020.06
2023-03-16T03:46:16.910Z,1020.06
2023-03-16T03:47:16.683Z,1020.04
2023-03-16T03:48:16.678Z,1020.06
2023-03-16T03:49:16.691Z,1020.00
2023-03-16T03:50:16.640Z,1020.03
2023-03-16T03:51:16.625Z,1019.99
2023-03-16T03:52:16.660Z,1020.05
2023-03-16T03:53:16.623Z,1020.03
2023-03-16T03:54:16.635Z,1020.02
2023-03-16T03:55:16.599Z,1019.99
2023-03-16T03:56:16.652Z,1019.98
2023-03-16T03:57:16.621Z,1019.98
2023-03-16T03:58:16.535Z,1020.00
2023-03-16T03:59:16.525Z,1019.97
2023-03-16T04:00:16.520Z,1019.92
2023-03-16T04:01:16.521Z,1019.95
2023-03-16T04:02:16.653Z,1019.98
2023-03-16T04:03:16.639Z,1020.00
2023-03-16T04:04:16.498Z,1019.94
2023-03-16T04:05:16.447Z,1019.94
2023-03-16T04:06:16.445Z,1019.97
2023-03-16T04:07:16.445Z,1019.92
2023-03-16T04:08:16.422Z,1019.95
2023-03-16T04:09:16.429Z,1019.93
2023-03-16T04:10:16.401Z,1019.94
2023-03-16T04:11:16.389Z,1019.94
2023-03-16T04:12:16.367Z,1019.93
2023-03-16T04:13:16.347Z,1019.89
2023-03-16T04:14:16.368Z,1019.90
2023-03-16T04:15:16.334Z,1019.90
2023-03-16T04:16:16.530Z,1019.88
2023-03-16T04:17:16.290Z,1019.86
2023-03-16T04:18:16.284Z,1019.87
2023-03-16T04:19:16.290Z,1019.80
2023-03-16T04:20:16.262Z,1019.84
2023-03-16T04:21:16.250Z,1019.84
2023-03-16T04:22:16.233Z,1019.80
2023-03-16T04:23:16.221Z,1019.83
2023-03-16T04:24:16.223Z,1019.81
2023-03-16T04:25:16.195Z,1019.79
2023-03-16T04:26:16.198Z,1019.80
2023-03-16T04:27:16.177Z,1019.79
2023-03-16T04:28:16.156Z,1019.79
2023-03-16T04:29:16.168Z,1019.78
2023-03-16T04:30:16.127Z,1019.75
2023-03-16T04:31:16.155Z,1019.72
2023-03-16T04:32:16.107Z,1019.73
2023-03-16T04:33:16.102Z,1019.71
2023-03-16T04:34:16.112Z,1019.70
2023-03-16T04:35:16.090Z,1019.69
2023-03-16T04:36:16.119Z,1019.72
2023-03-16T04:37:16.045Z,1019.75
2023-03-16T04:38:16.053Z,1019.63
2023-03-16T04:39:16.035Z,1019.70
2023-03-16T04:40:16.046Z,1019.70
2023-03-16T04:41:16.040Z,1019.72
2023-03-16T04:42:15.988Z,1019.70
2023-03-16T04:43:15.971Z,1019.68
2023-03-16T04:44:15.971Z,1019.69
2023-03-16T04:45:15.960Z,1019.64
2023-03-16T04:46:16.013Z,1019.65
2023-03-16T04:47:15.932Z,1019.68
2023-03-16T04:48:15.905Z,1019.63
2023-03-16T04:49:15.932Z,1019.71
2023-03-16T04:50:15.881Z,1019.67
2023-03-16T04:51:15.883Z,1019.73
2023-03-16T04:52:15.872Z,1019.71
2023-03-16T04:53:15.843Z,1019.72
2023-03-16T04:54:15.852Z,1019.70
2023-03-16T04:55:15.837Z,1019.66
2023-03-16T04:56:15.832Z,1019.65
2023-03-16T04:57:15.803Z,1019.69
2023-03-16T04:58:15.771Z,1019.71
2023-03-16T04:59:15.780Z,1019.65
2023-03-16T05:00:15.754Z,1019.67
2023-03-16T05:01:15.797Z,1019.64
2023-03-16T05:02:15.722Z,1019.65
2023-03-16T05:03:15.762Z,1019.62
2023-03-16T05:04:19.601Z,1019.69
2023-03-16T05:05:15.795Z,1019.68
2023-03-16T05:06:15.775Z,1019.74
2023-03-16T05:07:15.660Z,1019.69
2023-03-16T05:08:15.662Z,1019.74
2023-03-16T05:09:15.609Z,1019.74
2023-03-16T05:10:15.621Z,1019.75
2023-03-16T05:11:15.606Z,1019.77
2023-03-16T05:12:15.542Z,1019.71
2023-03-16T05:13:15.590Z,1019.72
2023-03-16T05:14:15.565Z,1019.68
2023-03-16T05:15:15.564Z,1019.72
2023-03-16T05:16:15.572Z,1019.65
2023-03-16T05:17:15.505Z,1019.70
2023-03-16T05:18:15.518Z,1019.70
2023-03-16T05:19:15.524Z,1019.67
2023-03-16T05:21:26.103Z,1019.69
2023-03-16T05:22:27.075Z,1019.70
2023-03-16T05:23:27.061Z,1019.74
2023-03-16T05:24:27.049Z,1019.71
2023-03-16T05:25:27.036Z,1019.70
2023-03-16T05:26:27.043Z,1019.69
2023-03-16T05:27:27.040Z,1019.75
2023-03-16T05:28:27.006Z,1019.67
2023-03-16T05:29:27.012Z,1019.67
2023-03-16T05:30:27.300Z,1019.67
2023-03-16T05:31:27.056Z,1019.65
2023-03-16T05:32:27.017Z,1019.71
2023-03-16T05:33:26.948Z,1019.66
2023-03-16T05:34:26.996Z,1019.69
2023-03-16T05:35:27.003Z,1019.68
2023-03-16T05:36:26.945Z,1019.68
2023-03-16T05:37:26.941Z,1019.62
2023-03-16T05:38:26.875Z,1019.65
2023-03-16T05:39:26.877Z,1019.63
2023-03-16T05:40:27.159Z,1019.58
2023-03-16T05:41:26.833Z,1019.59
2023-03-16T05:42:26.828Z,1019.57
2023-03-16T05:43:26.819Z,1019.60
2023-03-16T05:44:26.876Z,1019.57
2023-03-16T05:45:26.785Z,1019.63
2023-03-16T05:46:26.861Z,1019.56
2023-03-16T05:47:26.761Z,1019.61
2023-03-16T05:48:26.770Z,1019.60
2023-03-16T05:49:26.783Z,1019.60
2023-03-16T05:50:27.144Z,1019.57
2023-03-16T05:51:26.721Z,1019.58
2023-03-16T05:52:26.707Z,1019.58
2023-03-16T05:53:26.674Z,1019.54
2023-03-16T05:54:26.739Z,1019.59
2023-03-16T05:55:26.651Z,1019.60
2023-03-16T05:56:26.677Z,1019.56
2023-03-16T05:57:26.662Z,1019.59
2023-03-16T05:58:26.617Z,1019.56
2023-03-16T05:59:26.609Z,1019.57
2023-03-16T06:00:26.815Z,1019.58
2023-03-16T06:01:26.598Z,1019.65
2023-03-16T06:02:26.595Z,1019.69
2023-03-16T06:03:26.569Z,1019.61
2023-03-16T06:04:26.624Z,1019.68
2023-03-16T06:05:26.547Z,1019.64
2023-03-16T06:06:26.528Z,1019.58
2023-03-16T06:07:28.852Z,1019.58
2023-03-16T06:08:26.497Z,1019.61
2023-03-16T06:09:26.510Z,1019.56
2023-03-16T06:10:26.944Z,1019.60
2023-03-16T06:11:26.457Z,1019.60
2023-03-16T06:12:26.435Z,1019.59
2023-03-16T06:13:26.428Z,1019.59
2023-03-16T06:14:26.448Z,1019.58
2023-03-16T06:15:26.390Z,1019.57
2023-03-16T06:16:26.478Z,1019.55
2023-03-16T06:17:26.472Z,1019.56
2023-03-16T06:18:26.377Z,1019.51
2023-03-16T06:19:26.382Z,1019.58
2023-03-16T06:20:26.646Z,1019.52
2023-03-16T06:21:26.426Z,1019.46
2023-03-16T06:22:26.315Z,1019.44
2023-03-16T06:23:26.317Z,1019.41
2023-03-16T06:24:26.437Z,1019.36
2023-03-16T06:25:26.274Z,1019.34
2023-03-16T06:26:26.286Z,1019.29
2023-03-16T06:27:26.260Z,1019.29
2023-03-16T06:28:26.344Z,1019.30
2023-03-16T06:29:26.241Z,1019.27
2023-03-16T06:30:26.530Z,1019.27
2023-03-16T06:31:26.264Z,1019.30
2023-03-16T06:32:26.301Z,1019.32
2023-03-16T06:33:26.206Z,1019.25
2023-03-16T06:34:26.192Z,1019.28
2023-03-16T06:35:26.146Z,1019.27
2023-03-16T06:36:26.142Z,1019.21
2023-03-16T06:37:26.115Z,1019.23
2023-03-16T06:38:26.116Z,1019.25
2023-03-16T06:39:26.167Z,1019.24
2023-03-16T06:40:26.559Z,1019.21
2023-03-16T06:41:26.153Z,1019.24
2023-03-16T06:42:26.155Z,1019.21
2023-03-16T06:43:26.044Z,1019.28
2023-03-16T06:44:26.048Z,1019.32
2023-03-16T06:45:26.042Z,1019.34
2023-03-16T06:46:26.118Z,1019.31
2023-03-16T06:47:26.022Z,1019.29
2023-03-16T06:48:25.997Z,1019.29
2023-03-16T06:49:25.993Z,1019.30
2023-03-16T06:50:26.322Z,1019.24
2023-03-16T06:51:25.940Z,1019.23
2023-03-16T06:52:25.969Z,1019.22
2023-03-16T06:53:25.929Z,1019.22
2023-03-16T06:54:25.949Z,1019.24
2023-03-16T06:55:25.921Z,1019.24
2023-03-16T06:56:25.877Z,1019.25
2023-03-16T06:57:25.945Z,1019.24
2023-03-16T06:58:25.854Z,1019.23
2023-03-16T06:59:25.879Z,1019.28
2023-03-16T07:00:26.279Z,1019.20
2023-03-16T07:01:25.905Z,1019.16
2023-03-16T07:02:25.928Z,1019.19
2023-03-16T07:03:25.785Z,1019.19
2023-03-16T07:04:25.810Z,1019.26
2023-03-16T07:05:25.769Z,1019.27
2023-03-16T07:06:25.753Z,1019.30
2023-03-16T07:07:25.741Z,1019.27
2023-03-16T07:08:25.731Z,1019.31
2023-03-16T07:09:25.720Z,1019.36
2023-03-16T07:10:25.836Z,1019.33
2023-03-16T07:11:25.689Z,1019.37
2023-03-16T07:12:25.694Z,1019.29
2023-03-16T07:13:25.677Z,1019.32
2023-03-16T07:14:25.655Z,1019.28
2023-03-16T07:15:25.634Z,1019.36
2023-03-16T07:16:25.704Z,1019.41
2023-03-16T07:17:25.635Z,1019.58
2023-03-16T07:18:25.619Z,1019.56
2023-03-16T07:19:25.596Z,1019.63
2023-03-16T07:20:25.635Z,1019.62
2023-03-16T07:21:25.554Z,1019.61
2023-03-16T07:22:25.578Z,1019.61
2023-03-16T07:23:25.551Z,1019.63
2023-03-16T07:24:25.525Z,1019.62
2023-03-16T07:25:25.571Z,1019.63
2023-03-16T07:26:25.502Z,1019.68
2023-03-16T07:27:25.479Z,1019.67
2023-03-16T07:28:25.530Z,1019.65
2023-03-16T07:29:25.466Z,1019.57
2023-03-16T07:30:25.506Z,1019.56
2023-03-16T07:31:25.509Z,1019.55
2023-03-16T07:32:25.446Z,1019.54
2023-03-16T07:33:25.391Z,1019.42
2023-03-16T07:34:25.402Z,1019.36
2023-03-16T07:35:25.474Z,1019.37
2023-03-16T07:36:25.370Z,1019.28
2023-03-16T07:37:25.839Z,1019.28
2023-03-16T07:38:25.362Z,1019.29
2023-03-16T07:39:25.461Z,1019.28
2023-03-16T07:40:25.343Z,1019.32
2023-03-16T07:41:25.281Z,1019.29
2023-03-16T07:42:25.324Z,1019.24
2023-03-16T07:43:25.263Z,1019.29
2023-03-16T07:44:25.274Z,1019.26
2023-03-16T07:45:25.309Z,1019.30
2023-03-16T07:46:25.388Z,1019.32
2023-03-16T07:47:26.576Z,1019.31
2023-03-16T07:48:25.214Z,1019.31
2023-03-16T07:49:25.209Z,1019.32
2023-03-16T07:50:25.256Z,1019.30
2023-03-16T07:51:25.172Z,1019.27
2023-03-16T07:52:25.240Z,1019.23
2023-03-16T07:53:25.129Z,1019.24
2023-03-16T07:54:25.136Z,1019.19
2023-03-16T07:55:25.148Z,1019.20
2023-03-16T07:56:25.093Z,1019.23
2023-03-16T07:57:25.150Z,1019.26
2023-03-16T07:58:25.076Z,1019.31
2023-03-16T07:59:25.053Z,1019.30
2023-03-16T08:00:25.091Z,1019.27
2023-03-16T08:01:25.026Z,1019.33
2023-03-16T08:02:25.061Z,1019.36
2023-03-16T08:03:25.104Z,1019.32
2023-03-16T08:04:24.994Z,1019.32
2023-03-16T08:05:27.555Z,1019.34
2023-03-16T08:06:24.982Z,1019.29
2023-03-16T08:07:24.948Z,1019.35
2023-03-16T08:08:24.943Z,1019.32
2023-03-16T08:09:24.935Z,1019.35
2023-03-16T08:10:25.040Z,1019.36
2023-03-16T08:11:24.915Z,1019.33
2023-03-16T08:12:24.988Z,1019.31
2023-03-16T08:13:24.887Z,1019.30
2023-03-16T08:14:24.859Z,1019.28
2023-03-16T08:15:24.851Z,1019.27
2023-03-16T08:16:24.974Z,1019.19
2023-03-16T08:17:24.857Z,1019.19
2023-03-16T08:18:24.821Z,1019.20
2023-03-16T08:19:24.835Z,1019.23
2023-03-16T08:20:24.853Z,1019.25
2023-03-16T08:21:24.785Z,1019.24
2023-03-16T08:22:24.774Z,1019.20
2023-03-16T08:23:24.799Z,1019.22
2023-03-16T08:24:24.747Z,1019.20
2023-03-16T08:25:24.742Z,1019.24
2023-03-16T08:26:24.721Z,1019.22
2023-03-16T08:27:24.707Z,1019.22
2023-03-16T08:28:24.688Z,1019.17
2023-03-16T08:29:24.684Z,1019.19
2023-03-16T08:30:25.684Z,1019.17
2023-03-16T08:31:24.731Z,1019.13
2023-03-16T08:32:24.684Z,1019.13
2023-03-16T08:33:24.620Z,1019.18
2023-03-16T08:34:24.663Z,1019.16
2023-03-16T08:35:24.720Z,1019.16
2023-03-16T08:36:24.585Z,1019.17
2023-03-16T08:37:24.599Z,1019.16
2023-03-16T08:38:24.584Z,1019.16
2023-03-16T08:39:24.601Z,1019.13
2023-03-16T08:40:24.529Z,1019.14
2023-03-16T08:41:24.554Z,1019.14
2023-03-16T08:42:24.597Z,1019.14
2023-03-16T08:43:24.508Z,1019.14
2023-03-16T08:44:24.526Z,1019.21
2023-03-16T08:45:24.705Z,1019.17
2023-03-16T08:46:24.523Z,1019.15
2023-03-16T08:47:24.471Z,1019.15
2023-03-16T08:48:24.427Z,1019.11
2023-03-16T08:49:24.466Z,1019.09
2023-03-16T08:50:24.413Z,1019.04
2023-03-16T08:51:24.477Z,1019.02
2023-03-16T08:52:24.369Z,1019.01
2023-03-16T08:53:24.362Z,1018.98
2023-03-16T08:54:24.482Z,1018.97
2023-03-16T08:55:24.355Z,1018.96
2023-03-16T08:56:24.324Z,1018.95
2023-03-16T08:57:24.391Z,1018.97
2023-03-16T08:58:24.292Z,1019.00
2023-03-16T08:59:30.194Z,1018.99
2023-03-16T09:00:24.372Z,1018.98
2023-03-16T09:01:24.295Z,1019.04
2023-03-16T09:02:24.267Z,1019.04
2023-03-16T09:03:24.276Z,1018.96
2023-03-16T09:04:24.357Z,1018.98
2023-03-16T09:05:24.198Z,1018.98
2023-03-16T09:06:24.204Z,1018.99
2023-03-16T09:07:24.211Z,1018.95
2023-03-16T09:08:24.157Z,1018.96
2023-03-16T09:09:24.147Z,1018.99
2023-03-16T09:10:24.178Z,1018.99
2023-03-16T09:11:24.129Z,1019.01
2023-03-16T09:12:24.138Z,1019.04
2023-03-16T09:13:24.100Z,1019.02
2023-03-16T09:14:24.084Z,1019.01
2023-03-16T09:15:24.098Z,1019.04
2023-03-16T09:16:25.121Z,1019.05
2023-03-16T09:17:24.079Z,1019.04
2023-03-16T09:18:24.058Z,1019.07
2023-03-16T09:19:24.013Z,1019.07
2023-03-16T09:20:34.917Z,1019.05
2023-03-16T09:21:24.009Z,1019.04
2023-03-16T09:22:23.966Z,1019.09
2023-03-16T09:23:23.989Z,1019.08
2023-03-16T09:24:23.944Z,1019.11
2023-03-16T09:25:23.981Z,1019.08
2023-03-16T09:26:23.994Z,1019.06
2023-03-16T09:27:23.921Z,1018.99
2023-03-16T09:28:23.930Z,1019.03
2023-03-16T09:29:23.893Z,1018.94
2023-03-16T09:30:23.956Z,1018.89
2023-03-16T09:31:23.978Z,1018.87
2023-03-16T09:32:23.869Z,1018.83
2023-03-16T09:33:23.875Z,1018.85
2023-03-16T09:35:23.804Z,1018.82
2023-03-16T09:36:23.782Z,1018.80
2023-03-16T09:37:23.781Z,1018.82
2023-03-16T09:38:23.771Z,1018.84
2023-03-16T09:39:23.753Z,1018.82
2023-03-16T09:40:23.812Z,1018.88
2023-03-16T09:41:23.764Z,1018.85
2023-03-16T09:42:23.765Z,1018.88
2023-03-16T09:43:23.716Z,1018.90
2023-03-16T09:44:23.721Z,1018.81
2023-03-16T09:45:23.687Z,1018.80
2023-03-16T09:46:23.729Z,1018.81
2023-03-16T09:47:23.659Z,1018.81
2023-03-16T09:48:23.629Z,1018.80
2023-03-16T09:49:23.620Z,1018.82
2023-03-16T09:50:24.459Z,1018.79
2023-03-16T09:51:23.737Z,1018.85
2023-03-16T09:52:23.572Z,1018.83
2023-03-16T09:53:23.596Z,1018.81
2023-03-16T09:54:23.555Z,1018.84
2023-03-16T09:55:23.535Z,1018.85
2023-03-16T09:56:23.570Z,1018.82
2023-03-16T09:57:23.517Z,1018.84
2023-03-16T09:58:23.501Z,1018.84
2023-03-16T09:59:23.491Z,1018.83
2023-03-16T10:00:23.538Z,1018.86
2023-03-16T10:01:23.509Z,1018.83
2023-03-16T10:02:23.440Z,1018.83
2023-03-16T10:03:23.439Z,1018.78
2023-03-16T10:04:23.480Z,1018.76
2023-03-16T10:05:23.402Z,1018.75
2023-03-16T10:06:23.452Z,1018.76
2023-03-16T10:07:23.419Z,1018.74
2023-03-16T10:08:23.378Z,1018.78
2023-03-16T10:09:23.400Z,1018.76
2023-03-16T10:10:23.397Z,1018.70
2023-03-16T10:11:23.329Z,1018.73
2023-03-16T10:12:23.342Z,1018.62
2023-03-16T10:13:23.310Z,1018.65
2023-03-16T10:14:23.293Z,1018.58
2023-03-16T10:15:23.303Z,1018.59
2023-03-16T10:16:23.357Z,1018.58
2023-03-16T10:17:23.270Z,1018.61
2023-03-16T10:18:23.268Z,1018.62
2023-03-16T10:19:23.226Z,1018.60
2023-03-16T10:20:23.246Z,1018.57
2023-03-16T10:21:23.237Z,1018.58
2023-03-16T10:22:23.171Z,1018.59
2023-03-16T10:23:23.185Z,1018.58
2023-03-16T10:24:23.203Z,1018.61
2023-03-16T10:25:23.153Z,1018.68
2023-03-16T10:26:23.117Z,1018.61
2023-03-16T10:27:23.149Z,1018.67
2023-03-16T10:28:23.111Z,1018.64
2023-03-16T10:29:23.092Z,1018.68
2023-03-16T10:30:23.121Z,1018.70
2023-03-16T10:31:23.252Z,1018.69
2023-03-16T10:32:23.038Z,1018.66
2023-03-16T10:33:23.067Z,1018.70
2023-03-16T10:34:23.069Z,1018.70
2023-03-16T10:35:23.057Z,1018.72
2023-03-16T10:36:23.014Z,1018.59
2023-03-16T10:37:22.990Z,1018.63
2023-03-16T10:38:23.058Z,1018.64
2023-03-16T10:39:23.027Z,1018.64
2023-03-16T10:40:22.935Z,1018.64
2023-03-16T10:41:23.093Z,1018.60
2023-03-16T10:42:22.917Z,1018.53
2023-03-16T10:43:22.929Z,1018.54
2023-03-16T10:44:22.885Z,1018.55
2023-03-16T10:45:22.910Z,1018.57
2023-03-16T10:46:22.964Z,1018.56
2023-03-16T10:47:23.010Z,1018.58
2023-03-16T10:48:22.884Z,1018.54
2023-03-16T10:49:22.836Z,1018.49
2023-03-16T10:50:22.810Z,1018.47
2023-03-16T10:51:22.822Z,1018.47
2023-03-16T10:52:22.820Z,1018.46
2023-03-16T10:53:22.788Z,1018.48
2023-03-16T10:54:22.781Z,1018.43
2023-03-16T10:55:22.780Z,1018.41
2023-03-16T10:56:22.726Z,1018.47
2023-03-16T10:57:22.736Z,1018.41
2023-03-16T10:58:22.778Z,1018.44
2023-03-16T10:59:22.722Z,1018.50
2023-03-16T11:00:22.686Z,1018.46
2023-03-16T11:01:22.749Z,1018.43
2023-03-16T11:02:22.665Z,1018.43
2023-03-16T11:03:22.651Z,1018.43
2023-03-16T11:04:22.741Z,1018.38
2023-03-16T11:05:22.631Z,1018.38
2023-03-16T11:06:22.592Z,1018.38
2023-03-16T11:07:22.619Z,1018.37
2023-03-16T11:08:22.586Z,1018.39
2023-03-16T11:09:22.607Z,1018.36
2023-03-16T11:10:22.558Z,1018.32
2023-03-16T11:11:22.533Z,1018.34
2023-03-16T11:12:22.558Z,1018.33
2023-03-16T11:13:22.706Z,1018.35
2023-03-16T11:14:22.506Z,1018.33
2023-03-16T11:15:26.569Z,1018.31
2023-03-16T11:16:22.495Z,1018.32
2023-03-16T11:17:22.481Z,1018.29
2023-03-16T11:18:22.458Z,1018.25
2023-03-16T11:19:22.432Z,1018.24
2023-03-16T11:20:22.532Z,1018.22
2023-03-16T11:21:22.408Z,1018.21
2023-03-16T11:22:22.437Z,1018.21
2023-03-16T11:23:22.398Z,1018.18
2023-03-16T11:24:22.350Z,1018.22
2023-03-16T11:25:22.352Z,1018.20
2023-03-16T11:26:22.412Z,1018.20
2023-03-16T11:27:22.342Z,1018.15
2023-03-16T11:28:22.323Z,1018.11
2023-03-16T11:29:22.312Z,1018.09
2023-03-16T11:30:22.296Z,1018.09
2023-03-16T11:31:22.347Z,1018.01
2023-03-16T11:32:22.340Z,1018.07
2023-03-16T11:33:22.248Z,1018.06
2023-03-16T11:34:22.235Z,1018.04
2023-03-16T11:35:22.282Z,1018.03
2023-03-16T11:36:22.258Z,1017.96
2023-03-16T11:37:22.205Z,1017.93
2023-03-16T11:38:22.238Z,1017.94
2023-03-16T11:39:22.185Z,1017.88
2023-03-16T11:40:22.167Z,1017.88
2023-03-16T11:41:22.192Z,1017.87
2023-03-16T11:42:22.125Z,1017.81
2023-03-16T11:43:22.144Z,1017.80
2023-03-16T11:44:22.154Z,1017.80
2023-03-16T11:45:22.085Z,1017.82
2023-03-16T11:46:22.113Z,1017.83
2023-03-16T11:47:22.098Z,1017.79
2023-03-16T11:48:22.046Z,1017.79
2023-03-16T11:49:22.036Z,1017.77
2023-03-16T11:50:22.106Z,1017.77
2023-03-16T11:51:22.037Z,1017.73
2023-03-16T11:52:21.995Z,1017.75
2023-03-16T11:53:22.019Z,1017.75
2023-03-16T11:54:22.011Z,1017.73
2023-03-16T11:55:21.990Z,1017.72
2023-03-16T11:56:21.957Z,1017.67
2023-03-16T11:57:21.926Z,1017.63
2023-03-16T11:58:21.943Z,1017.65
2023-03-16T11:59:21.913Z,1017.68
2023-03-16T12:00:21.893Z,1017.67
2023-03-16T12:01:21.976Z,1017.69
2023-03-16T12:02:22.020Z,1017.62
2023-03-16T12:03:21.893Z,1017.66
2023-03-16T12:04:21.924Z,1017.60
2023-03-16T12:05:21.850Z,1017.62
2023-03-16T12:06:23.542Z,1017.65
2023-03-16T12:07:21.818Z,1017.65